Time;durP1;ratioP1;P1;durP2;ratioP2;P2;SDS_P1;SDS_P2;PMS_P1;PMS_P2;Temp;Humidity;BMP_temperature;BMP_pressure;BME280_temperature;BME280_humidity;BME280_pressure;Samples;Min_cycle;Max_cycle;Signal;HPM_P1;HPM_P2
2022/02/23 00:02:17;;;;;;;3.80;1.60;;;17.90;59.50;;;;;;10412268;28;20036;-57
2022/02/23 00:07:18;;;;;;;5.38;2.05;;;17.90;59.60;;;;;;10427718;28;20041;-57
2022/02/23 00:12:19;;;;;;;5.03;1.80;;;18.00;59.50;;;;;;10414382;28;20104;-57
2022/02/23 00:17:22;;;;;;;4.32;1.60;;;17.90;59.50;;;;;;10410972;28;20444;-57
2022/02/23 00:22:24;;;;;;;6.65;1.70;;;18.00;59.30;;;;;;10411130;28;20061;-57
2022/02/23 00:27:25;;;;;;;5.93;1.55;;;18.00;59.30;;;;;;10411768;28;20083;-57
2022/02/23 00:32:26;;;;;;;4.75;1.92;;;18.00;59.00;;;;;;10400829;28;20481;-57
2022/02/23 00:37:27;;;;;;;3.28;1.67;;;18.00;59.10;;;;;;10427594;28;20129;-57
2022/02/23 00:42:27;;;;;;;3.30;1.35;;;18.10;58.90;;;;;;10417980;28;20620;-57
2022/02/23 00:47:28;;;;;;;4.47;1.45;;;18.00;59.20;;;;;;10417639;28;20025;-56
2022/02/23 00:52:29;;;;;;;7.07;1.63;;;18.00;59.30;;;;;;10418576;28;20100;-57
2022/02/23 00:57:29;;;;;;;3.72;1.23;;;18.00;59.10;;;;;;10418747;28;20109;-57
2022/02/23 01:02:30;;;;;;;4.93;1.63;;;17.90;59.30;;;;;;10433827;28;20474;-57
2022/02/23 01:07:31;;;;;;;6.97;2.13;;;18.00;59.10;;;;;;10418025;28;20045;-57
2022/02/23 01:12:32;;;;;;;4.15;1.65;;;17.90;59.10;;;;;;10420198;28;20104;-57
2022/02/23 01:17:33;;;;;;;3.20;1.40;;;17.90;59.10;;;;;;10416300;28;20091;-57
2022/02/23 01:22:34;;;;;;;4.97;1.48;;;17.90;59.20;;;;;;10417776;28;20036;-57
2022/02/23 01:27:35;;;;;;;4.38;1.67;;;18.00;59.00;;;;;;10399593;28;20026;-57
2022/02/23 01:32:36;;;;;;;3.28;1.30;;;18.00;58.80;;;;;;10420973;28;20078;-57
2022/02/23 01:37:37;;;;;;;4.25;1.58;;;18.10;58.60;;;;;;10423831;28;20058;-58
2022/02/23 01:42:37;;;;;;;3.58;1.42;;;18.00;58.90;;;;;;10415284;28;20095;-57
2022/02/23 01:47:39;;;;;;;4.22;1.52;;;18.00;58.80;;;;;;10414305;28;20120;-57
2022/02/23 01:52:40;;;;;;;5.32;1.20;;;17.90;58.80;;;;;;10414865;28;20108;-57
2022/02/23 01:57:41;;;;;;;4.15;1.60;;;18.00;58.80;;;;;;10431580;28;20112;-57
2022/02/23 02:02:43;;;;;;;3.42;1.52;;;17.90;58.80;;;;;;10415512;28;20359;-58
2022/02/23 02:07:44;;;;;;;4.95;1.38;;;18.00;58.90;;;;;;10414470;28;20036;-57
2022/02/23 02:12:45;;;;;;;2.80;1.10;;;18.10;59.80;;;;;;10401971;28;20032;-57
2022/02/23 02:17:45;;;;;;;2.53;1.27;;;18.10;60.10;;;;;;10415155;28;20029;-57
2022/02/23 02:22:46;;;;;;;6.03;1.48;;;18.20;60.50;;;;;;10414112;28;20033;-57
2022/02/23 02:27:47;;;;;;;3.65;1.13;;;18.10;60.80;;;;;;10415060;28;20087;-57
2022/02/23 02:32:47;;;;;;;6.97;1.73;;;18.10;60.80;;;;;;10430770;28;20453;-57
2022/02/23 02:37:48;;;;;;;2.35;1.00;;;18.10;61.00;;;;;;10420512;28;20045;-57
2022/02/23 02:42:49;;;;;;;7.95;1.60;;;18.10;61.00;;;;;;10429780;28;20037;-57
2022/02/23 02:47:50;;;;;;;4.43;1.83;;;18.00;60.90;;;;;;10429357;28;20121;-57
2022/02/23 02:52:50;;;;;;;4.07;1.30;;;18.00;60.90;;;;;;10429495;28;20029;-57
2022/02/23 02:57:51;;;;;;;4.03;1.70;;;18.00;60.80;;;;;;10428584;28;20101;-57
2022/02/23 03:02:52;;;;;;;8.20;1.80;;;17.90;61.00;;;;;;10413387;28;20025;-57
2022/02/23 03:07:53;;;;;;;4.75;1.40;;;18.00;60.90;;;;;;10395859;28;20098;-57
2022/02/23 03:12:53;;;;;;;3.15;1.27;;;17.90;60.90;;;;;;10413427;28;20037;-57
2022/02/23 03:17:54;;;;;;;5.47;1.55;;;17.90;60.90;;;;;;10412455;28;20018;-57
2022/02/23 03:22:55;;;;;;;2.75;1.55;;;17.90;60.90;;;;;;10428644;28;20104;-57
2022/02/23 03:27:55;;;;;;;4.32;1.25;;;17.90;60.90;;;;;;10413283;28;20120;-57
2022/02/23 03:32:56;;;;;;;2.90;0.80;;;17.90;60.80;;;;;;10418093;28;20472;-57
2022/02/23 03:37:58;;;;;;;3.80;1.13;;;17.80;60.80;;;;;;10418082;28;20053;-57
2022/02/23 03:43:00;;;;;;;3.42;1.23;;;17.90;60.50;;;;;;10412640;28;20036;-57
2022/02/23 03:48:02;;;;;;;2.03;1.10;;;18.00;60.20;;;;;;10411299;28;20040;-57
2022/02/23 03:53:03;;;;;;;4.20;0.93;;;18.00;60.30;;;;;;10412767;28;20026;-57
2022/02/23 03:58:04;;;;;;;3.67;1.42;;;18.00;60.30;;;;;;10411267;28;20037;-57
2022/02/23 04:03:05;;;;;;;3.50;1.50;;;18.00;60.30;;;;;;10412512;28;20033;-57
2022/02/23 04:08:05;;;;;;;2.67;1.00;;;18.00;60.40;;;;;;10414356;28;20566;-57
2022/02/23 04:13:06;;;;;;;3.15;1.13;;;17.90;60.20;;;;;;10405827;28;20039;-57
2022/02/23 04:18:07;;;;;;;4.15;1.20;;;17.90;60.30;;;;;;10418679;28;20544;-57
2022/02/23 04:23:08;;;;;;;4.90;1.20;;;17.90;60.20;;;;;;10418619;28;20044;-57
2022/02/23 04:28:08;;;;;;;4.53;1.23;;;17.90;60.30;;;;;;10419553;28;20470;-57
2022/02/23 04:33:10;;;;;;;2.50;0.93;;;17.90;60.20;;;;;;10427451;28;20029;-57
2022/02/23 04:38:10;;;;;;;4.28;1.23;;;18.00;60.00;;;;;;10421799;28;20120;-57
2022/02/23 04:43:13;;;;;;;3.20;1.25;;;18.00;59.80;;;;;;10418913;28;20572;-57
2022/02/23 04:48:16;;;;;;;2.50;0.93;;;18.00;59.60;;;;;;10418863;28;20395;-57
2022/02/23 04:53:16;;;;;;;2.92;1.40;;;18.00;59.70;;;;;;10401050;28;20025;-58
2022/02/23 04:58:17;;;;;;;3.60;1.15;;;18.00;59.70;;;;;;10417209;28;20116;-57
2022/02/23 05:03:18;;;;;;;3.90;1.10;;;17.90;59.90;;;;;;10418384;28;20512;-57
2022/02/23 05:08:19;;;;;;;3.20;1.20;;;17.90;59.70;;;;;;10416835;28;20035;-57
2022/02/23 05:13:21;;;;;;;2.83;1.08;;;17.90;59.90;;;;;;10419915;28;20025;-57
2022/02/23 05:18:27;;;;;;;4.25;1.25;;;18.00;59.60;;;;;;10416198;28;20065;-58
2022/02/23 05:23:29;;;;;;;2.80;1.10;;;17.90;59.70;;;;;;10429983;28;20036;-57
2022/02/23 05:28:32;;;;;;;3.45;1.17;;;17.90;59.60;;;;;;10406364;28;20029;-57
2022/02/23 05:33:32;;;;;;;3.95;1.33;;;18.00;59.50;;;;;;10410584;28;20070;-57
2022/02/23 05:38:33;;;;;;;3.15;1.20;;;18.00;59.60;;;;;;10415425;28;20420;-58
2022/02/23 05:43:34;;;;;;;5.30;1.60;;;18.10;59.20;;;;;;10416145;28;20378;-57
2022/02/23 05:48:34;;;;;;;3.55;1.10;;;18.10;59.10;;;;;;10415088;28;20025;-57
2022/02/23 05:53:35;;;;;;;4.82;1.52;;;18.00;59.30;;;;;;10419482;28;20033;-57
2022/02/23 05:58:36;;;;;;;2.20;1.00;;;18.00;59.40;;;;;;10414309;28;20426;-56
2022/02/23 06:03:37;;;;;;;4.75;1.15;;;18.00;59.50;;;;;;10420074;28;20033;-57
2022/02/23 06:08:38;;;;;;;9.23;1.50;;;17.90;60.00;;;;;;10414992;28;20029;-57
2022/02/23 06:13:39;;;;;;;6.75;1.35;;;18.00;59.80;;;;;;10414953;28;20511;-57
2022/02/23 06:18:40;;;;;;;10.00;1.70;;;18.20;59.90;;;;;;10416242;28;20043;-58
2022/02/23 06:23:43;;;;;;;9.07;1.67;;;18.10;61.20;;;;;;10396699;28;20542;-57
2022/02/23 06:28:45;;;;;;;7.65;1.80;;;18.10;60.80;;;;;;10417973;28;20032;-57
2022/02/23 06:33:46;;;;;;;8.43;2.00;;;18.00;61.40;;;;;;10423140;28;20106;-58
2022/02/23 06:38:47;;;;;;;7.95;1.75;;;18.00;61.20;;;;;;10405382;28;20425;-57
2022/02/23 06:43:48;;;;;;;10.85;1.90;;;18.00;61.30;;;;;;10414238;28;20091;-58
2022/02/23 06:48:49;;;;;;;12.93;2.92;;;18.10;61.60;;;;;;10403785;28;20053;-57
2022/02/23 06:53:50;;;;;;;7.78;2.38;;;18.00;61.90;;;;;;10401273;28;20026;-59
2022/02/23 06:58:51;;;;;;;11.90;2.67;;;18.10;61.90;;;;;;10407317;28;20037;-58
2022/02/23 07:03:53;;;;;;;7.95;2.42;;;18.10;61.80;;;;;;10410876;28;20025;-61
2022/02/23 07:08:54;;;;;;;11.90;2.83;;;18.00;61.60;;;;;;10412419;28;20079;-59
2022/02/23 07:13:54;;;;;;;20.58;3.45;;;17.90;61.70;;;;;;10399863;28;20112;-59
2022/02/23 07:18:55;;;;;;;9.52;2.67;;;17.80;61.60;;;;;;10413439;28;20116;-61
2022/02/23 07:23:56;;;;;;;15.80;3.35;;;17.90;61.40;;;;;;10401572;28;20033;-60
2022/02/23 07:28:57;;;;;;;10.95;2.67;;;17.70;61.30;;;;;;10418721;28;20104;-61
2022/02/23 07:33:58;;;;;;;12.70;2.50;;;17.80;61.30;;;;;;10421671;28;20540;-60
2022/02/23 07:38:58;;;;;;;13.70;3.25;;;17.70;61.20;;;;;;10411239;28;20037;-62
2022/02/23 07:44:00;;;;;;;10.18;2.10;;;17.70;60.90;;;;;;10410816;28;20120;-62
2022/02/23 07:49:01;;;;;;;10.20;2.97;;;17.80;60.60;;;;;;10419704;28;20163;-62
2022/02/23 07:54:01;;;;;;;6.45;1.77;;;17.80;60.50;;;;;;10419231;28;20032;-62
2022/02/23 07:59:02;;;;;;;10.15;2.20;;;17.80;60.80;;;;;;10419073;28;20465;-62
2022/02/23 08:04:04;;;;;;;8.68;1.65;;;17.70;60.80;;;;;;10419243;28;20079;-62
2022/02/23 08:09:07;;;;;;;9.30;2.05;;;17.80;60.90;;;;;;10402361;28;20052;-62
2022/02/23 08:14:10;;;;;;;7.82;1.80;;;17.70;61.20;;;;;;10413516;28;20029;-61
2022/02/23 08:24:34;;;;;;;10.43;2.97;;;17.80;61.60;;;;;;10419635;28;20693;-61
2022/02/23 08:29:36;;;;;;;13.50;3.53;;;17.70;61.90;;;;;;10408935;28;20103;-66
2022/02/23 08:34:39;;;;;;;16.13;2.92;;;17.70;62.10;;;;;;10418111;28;20077;-64
2022/02/23 08:39:41;;;;;;;17.48;3.08;;;17.60;62.50;;;;;;10422908;28;20482;-63
2022/02/23 08:44:43;;;;;;;12.55;2.22;;;17.50;63.30;;;;;;10400599;28;20036;-61
2022/02/23 08:49:44;;;;;;;12.65;2.50;;;17.60;62.60;;;;;;10416457;28;20036;-59
2022/02/23 08:54:44;;;;;;;12.63;3.72;;;17.60;62.60;;;;;;10415837;28;20109;-60
2022/02/23 08:59:45;;;;;;;21.67;3.22;;;17.60;62.60;;;;;;10415955;28;20025;-61
2022/02/23 09:04:46;;;;;;;11.60;3.05;;;17.50;64.00;;;;;;10416236;28;20393;-60
2022/02/23 09:09:46;;;;;;;11.82;2.50;;;17.40;64.00;;;;;;10424037;28;20477;-59
2022/02/23 09:14:47;;;;;;;11.80;2.70;;;17.50;63.60;;;;;;10421374;28;20029;-60
2022/02/23 09:19:49;;;;;;;12.60;2.70;;;17.40;63.60;;;;;;10414697;28;20034;-59
2022/02/23 09:24:53;;;;;;;13.45;3.05;;;17.40;64.60;;;;;;10416535;28;20784;-60
2022/02/23 09:29:53;;;;;;;13.25;3.00;;;17.30;64.70;;;;;;10414675;28;20096;-59
2022/02/23 09:34:54;;;;;;;12.15;3.30;;;17.30;64.40;;;;;;10415011;28;20136;-58
2022/02/23 09:39:55;;;;;;;12.77;3.40;;;17.30;64.40;;;;;;10421965;28;20036;-58
2022/02/23 09:45:00;;;;;;;8.23;2.10;;;17.30;64.20;;;;;;10413032;28;20048;-59
2022/02/23 09:50:04;;;;;;;10.57;2.65;;;17.40;64.20;;;;;;10429791;28;20057;-58
2022/02/23 09:55:06;;;;;;;11.50;2.65;;;17.40;64.20;;;;;;10392837;28;20084;-58
2022/02/23 10:00:08;;;;;;;6.68;2.83;;;17.40;64.10;;;;;;10414453;28;20034;-57
2022/02/23 10:05:10;;;;;;;7.90;2.53;;;17.40;64.10;;;;;;10414644;28;20033;-57
2022/02/23 10:10:11;;;;;;;13.98;3.17;;;17.40;64.10;;;;;;10430825;28;20108;-58
2022/02/23 10:15:19;;;;;;;8.05;2.30;;;17.40;64.00;;;;;;10426517;28;20040;-58
2022/02/23 10:20:24;;;;;;;9.63;2.17;;;17.40;64.00;;;;;;10430349;28;20025;-57
2022/02/23 10:25:30;;;;;;;6.80;1.98;;;17.40;64.00;;;;;;10410229;28;20040;-58
2022/02/23 10:30:30;;;;;;;6.57;1.77;;;17.40;63.90;;;;;;10411980;28;20098;-58
2022/02/23 10:35:31;;;;;;;5.95;1.90;;;17.40;63.60;;;;;;10424323;28;20183;-58
2022/02/23 10:40:42;;;;;;;6.32;2.25;;;17.40;63.50;;;;;;10410894;28;20040;-57
2022/02/23 10:45:45;;;;;;;3.92;1.90;;;17.40;63.40;;;;;;10394382;28;20030;-56
2022/02/23 10:50:54;;;;;;;6.07;2.15;;;17.50;63.20;;;;;;10408430;28;20120;-57
2022/02/23 10:55:55;;;;;;;6.55;2.40;;;17.40;63.00;;;;;;10404640;28;20032;-57
2022/02/23 11:01:03;;;;;;;8.05;2.38;;;17.50;62.90;;;;;;10428263;28;20077;-57
2022/02/23 11:06:04;;;;;;;6.53;2.30;;;17.50;63.10;;;;;;10412029;28;20044;-57
2022/02/23 11:11:06;;;;;;;4.47;1.90;;;17.50;63.10;;;;;;10403827;28;20033;-56
2022/02/23 11:16:09;;;;;;;5.30;2.25;;;17.50;63.10;;;;;;10405614;28;20063;-57
2022/02/23 11:21:19;;;;;;;5.82;2.08;;;17.50;63.10;;;;;;10392809;28;20056;-56
2022/02/23 11:26:21;;;;;;;7.20;1.95;;;17.50;62.80;;;;;;10391253;28;20136;-57
2022/02/23 11:31:22;;;;;;;5.53;1.88;;;17.60;62.90;;;;;;10411299;28;20437;-58
2022/02/23 11:36:44;;;;;;;9.27;2.38;;;17.60;62.80;;;;;;10439231;28;20068;-57
2022/02/23 11:41:58;;;;;;;9.60;3.47;;;17.70;62.70;;;;;;10412804;28;20064;-58
2022/02/23 11:47:12;;;;;;;13.02;3.72;;;17.70;62.30;;;;;;10411258;28;20117;-56
2022/02/23 11:52:19;;;;;;;11.30;2.95;;;17.70;61.80;;;;;;10404335;28;20515;-57
2022/02/23 11:57:49;;;;;;;5.82;2.20;;;17.70;61.40;;;;;;10412094;28;20078;-56
2022/02/23 12:03:01;;;;;;;8.97;3.13;;;17.70;61.00;;;;;;10412461;28;20092;-57
2022/02/23 12:08:03;;;;;;;8.52;3.17;;;17.70;60.90;;;;;;10411441;28;20045;-57
2022/02/23 12:13:24;;;;;;;5.57;2.35;;;17.70;61.10;;;;;;10401064;28;20168;-58
2022/02/23 12:18:27;;;;;;;10.50;2.63;;;17.70;61.30;;;;;;10415464;28;20022;-58
2022/02/23 12:23:33;;;;;;;4.63;1.80;;;17.70;61.70;;;;;;10393956;28;20466;-58
2022/02/23 12:28:36;;;;;;;6.05;2.15;;;17.70;61.80;;;;;;10408601;28;20021;-58
2022/02/23 12:33:41;;;;;;;6.35;2.40;;;17.80;61.80;;;;;;10399561;28;20509;-61
2022/02/23 12:38:51;;;;;;;8.30;3.13;;;17.80;61.60;;;;;;10417453;28;20037;-58
2022/02/23 12:44:15;;;;;;;8.27;2.30;;;17.80;61.80;;;;;;10417698;28;20058;-58
2022/02/23 12:49:17;;;;;;;12.20;2.70;;;17.70;62.10;;;;;;10418781;28;20037;-58
2022/02/23 12:54:25;;;;;;;11.45;2.63;;;17.80;62.00;;;;;;10417680;28;20038;-58
2022/02/23 12:59:29;;;;;;;8.35;2.70;;;17.80;61.90;;;;;;10407472;28;20069;-59
2022/02/23 13:04:37;;;;;;;10.70;2.22;;;17.70;62.00;;;;;;10399786;28;20026;-60
2022/02/23 13:09:47;;;;;;;11.00;2.15;;;17.70;62.10;;;;;;10417679;28;20033;-59
2022/02/23 13:14:55;;;;;;;10.57;2.13;;;17.80;62.10;;;;;;10416628;28;20033;-59
2022/02/23 13:19:56;;;;;;;6.70;2.00;;;17.80;62.00;;;;;;10429153;28;20056;-59
2022/02/23 13:24:59;;;;;;;5.20;1.95;;;17.80;61.90;;;;;;10419349;28;20103;-59
2022/02/23 13:30:05;;;;;;;5.30;1.98;;;17.80;61.80;;;;;;10397558;28;20033;-60
2022/02/23 13:35:08;;;;;;;7.32;1.90;;;17.80;61.60;;;;;;10425961;28;20049;-59
2022/02/23 13:40:17;;;;;;;9.07;1.83;;;17.80;61.40;;;;;;10416360;28;20041;-60
2022/02/23 13:45:25;;;;;;;5.07;1.58;;;17.90;61.40;;;;;;10429035;28;20084;-59
2022/02/23 13:50:38;;;;;;;4.60;1.80;;;17.90;61.20;;;;;;10415506;28;20116;-59
2022/02/23 13:55:52;;;;;;;5.03;2.22;;;17.90;61.20;;;;;;10411629;28;20405;-59
2022/02/23 14:00:55;;;;;;;5.32;2.13;;;17.90;61.20;;;;;;10414844;28;20041;-59
2022/02/23 14:06:03;;;;;;;4.22;1.58;;;17.90;61.10;;;;;;10396852;28;20160;-59
2022/02/23 14:11:22;;;;;;;5.72;1.90;;;17.90;61.20;;;;;;10394546;28;20060;-59
2022/02/23 14:16:44;;;;;;;9.00;1.93;;;17.90;61.00;;;;;;10409250;28;20108;-58
2022/02/23 14:21:56;;;;;;;8.02;2.15;;;17.80;61.30;;;;;;10416175;28;20037;-58
2022/02/23 14:27:07;;;;;;;8.52;2.30;;;17.90;61.40;;;;;;10429327;28;20037;-58
2022/02/23 14:32:25;;;;;;;17.25;3.28;;;17.90;61.70;;;;;;10417803;28;20405;-59
2022/02/23 14:37:28;;;;;;;22.15;3.75;;;18.00;62.50;;;;;;10404453;28;20513;-59
2022/02/23 14:42:29;;;;;;;13.05;3.20;;;17.90;62.50;;;;;;10413968;28;20071;-57
2022/02/23 14:47:29;;;;;;;23.38;5.82;;;17.90;62.60;;;;;;10411431;28;20083;-60
2022/02/23 14:52:30;;;;;;;18.48;3.67;;;17.90;62.70;;;;;;10417512;28;20490;-59
2022/02/23 14:57:31;;;;;;;29.60;4.90;;;17.90;63.10;;;;;;10420350;28;20037;-60
2022/02/23 15:02:32;;;;;;;27.15;5.75;;;17.90;63.30;;;;;;10393989;28;20036;-60
2022/02/23 15:07:32;;;;;;;18.25;5.22;;;17.90;63.40;;;;;;10412379;28;20030;-59
2022/02/23 15:12:34;;;;;;;14.52;3.70;;;17.90;63.40;;;;;;10412946;28;20041;-59
2022/02/23 15:17:34;;;;;;;19.95;4.45;;;17.90;63.40;;;;;;10416274;28;20108;-61
2022/02/23 15:22:35;;;;;;;22.30;5.00;;;17.80;63.60;;;;;;10411480;28;20036;-60
2022/02/23 15:27:36;;;;;;;23.92;5.40;;;17.70;63.90;;;;;;10421273;28;20569;-60
2022/02/23 15:32:38;;;;;;;25.55;4.55;;;17.60;64.00;;;;;;10428488;28;20057;-59
2022/02/23 15:37:39;;;;;;;14.13;4.40;;;17.60;64.00;;;;;;10421449;28;20139;-60
2022/02/23 15:42:40;;;;;;;23.45;4.97;;;17.50;64.10;;;;;;10411723;28;20489;-59
2022/02/23 15:47:41;;;;;;;23.90;5.25;;;17.50;64.50;;;;;;10427827;28;20029;-63
2022/02/23 15:52:42;;;;;;;40.88;6.43;;;17.40;64.50;;;;;;10423197;28;20418;-59
2022/02/23 15:57:42;;;;;;;18.60;5.35;;;17.40;64.50;;;;;;10414982;28;20116;-58
2022/02/23 16:02:44;;;;;;;26.20;5.20;;;17.40;64.40;;;;;;10410682;28;20034;-60
2022/02/23 16:07:46;;;;;;;23.38;4.43;;;17.30;64.50;;;;;;10419957;28;20034;-58
2022/02/23 16:12:47;;;;;;;13.82;3.88;;;17.20;64.40;;;;;;10434875;28;20112;-59
2022/02/23 16:17:49;;;;;;;20.70;3.97;;;17.20;64.40;;;;;;10410702;28;20034;-59
2022/02/23 16:22:51;;;;;;;20.08;4.78;;;17.10;64.40;;;;;;10419907;28;20040;-58
2022/02/23 16:27:52;;;;;;;14.32;4.25;;;17.10;64.40;;;;;;10392095;28;20026;-58
2022/02/23 16:32:52;;;;;;;11.88;4.28;;;17.10;64.50;;;;;;10395757;28;20361;-59
2022/02/23 16:37:53;;;;;;;12.00;3.42;;;17.00;64.40;;;;;;10419127;28;20041;-58
2022/02/23 16:42:54;;;;;;;13.95;3.80;;;17.00;64.40;;;;;;10434871;28;20481;-59
2022/02/23 16:47:55;;;;;;;12.90;3.92;;;17.00;64.50;;;;;;10421328;28;20039;-59
2022/02/23 16:52:56;;;;;;;12.23;3.40;;;17.00;64.50;;;;;;10418750;28;20061;-59
2022/02/23 16:57:57;;;;;;;10.45;3.85;;;17.00;64.40;;;;;;10417491;28;20029;-59
2022/02/23 17:02:58;;;;;;;11.02;4.30;;;17.00;64.30;;;;;;10418533;28;20041;-59
2022/02/23 17:07:59;;;;;;;8.50;2.65;;;17.00;64.20;;;;;;10417072;28;20052;-59
2022/02/23 17:13:00;;;;;;;10.10;2.47;;;17.00;64.10;;;;;;10410856;28;20021;-58
2022/02/23 17:18:01;;;;;;;11.88;3.08;;;17.00;63.80;;;;;;10417298;28;20040;-58
2022/02/23 17:23:02;;;;;;;10.85;3.85;;;17.10;63.60;;;;;;10417928;28;20545;-58
2022/02/23 17:28:05;;;;;;;9.02;2.55;;;17.10;63.40;;;;;;10417132;28;20037;-58
2022/02/23 17:33:06;;;;;;;45.60;18.77;;;17.20;63.20;;;;;;10412416;28;20064;-58
2022/02/23 17:38:07;;;;;;;33.90;16.10;;;17.60;64.30;;;;;;10416489;28;20049;-59
2022/02/23 17:43:08;;;;;;;25.92;11.18;;;17.90;65.50;;;;;;10415346;28;20094;-60
2022/02/23 17:48:10;;;;;;;12.50;7.22;;;18.10;66.60;;;;;;10415410;28;20026;-57
2022/02/23 17:53:11;;;;;;;13.57;5.95;;;18.10;64.60;;;;;;10431342;28;20025;-59
2022/02/23 17:58:12;;;;;;;12.95;5.43;;;18.20;64.20;;;;;;10407078;28;20564;-59
2022/02/23 18:03:13;;;;;;;9.02;3.78;;;18.10;62.70;;;;;;10427888;28;20489;-61
2022/02/23 18:08:13;;;;;;;12.40;3.65;;;18.00;62.10;;;;;;10430621;28;20041;-60
2022/02/23 18:13:14;;;;;;;11.48;3.47;;;17.90;61.90;;;;;;10405116;28;20037;-58
2022/02/23 18:18:15;;;;;;;8.80;2.70;;;18.00;61.30;;;;;;10414500;28;20025;-58
2022/02/23 18:23:16;;;;;;;10.68;3.10;;;18.00;61.20;;;;;;10413918;28;20040;-59
2022/02/23 18:28:17;;;;;;;10.25;2.30;;;17.90;61.40;;;;;;10413180;28;20076;-60
2022/02/23 18:33:17;;;;;;;12.15;3.05;;;17.80;61.70;;;;;;10413215;28;20029;-60
2022/02/23 18:38:18;;;;;;;9.23;2.38;;;17.80;61.90;;;;;;10414833;28;20108;-59
2022/02/23 18:43:19;;;;;;;12.45;2.50;;;17.70;62.20;;;;;;10428168;28;20029;-59
2022/02/23 18:48:21;;;;;;;7.60;2.28;;;17.60;62.80;;;;;;10400560;28;20032;-59
2022/02/23 18:53:22;;;;;;;9.18;2.53;;;17.70;62.90;;;;;;10398914;28;20026;-59
2022/02/23 18:58:22;;;;;;;7.90;2.10;;;17.60;62.90;;;;;;10409289;28;20095;-60
2022/02/23 19:03:23;;;;;;;15.95;2.92;;;17.60;63.20;;;;;;10400970;28;20167;-59
2022/02/23 19:08:24;;;;;;;8.68;2.30;;;17.40;64.00;;;;;;10404814;28;20075;-59
2022/02/23 19:13:26;;;;;;;6.43;2.15;;;17.40;64.90;;;;;;10391716;28;20029;-59
2022/02/23 19:18:27;;;;;;;14.55;2.72;;;17.30;65.00;;;;;;10415005;28;20039;-59
2022/02/23 19:23:27;;;;;;;6.28;2.45;;;17.40;65.10;;;;;;10420507;28;20021;-58
2022/02/23 19:28:31;;;;;;;5.30;2.00;;;17.30;65.00;;;;;;10399181;28;20535;-58
2022/02/23 19:33:32;;;;;;;6.13;1.85;;;17.30;65.00;;;;;;10409485;28;20125;-59
2022/02/23 19:38:34;;;;;;;4.38;2.00;;;17.30;65.00;;;;;;10423137;28;20025;-60
2022/02/23 19:43:35;;;;;;;6.00;2.22;;;17.30;65.10;;;;;;10431572;28;20018;-58
2022/02/23 19:48:36;;;;;;;5.43;1.90;;;17.30;65.10;;;;;;10396451;28;20026;-59
2022/02/23 19:53:37;;;;;;;6.18;2.03;;;17.30;65.10;;;;;;10405317;28;20449;-59
2022/02/23 19:58:41;;;;;;;7.80;2.08;;;17.20;65.20;;;;;;10395295;28;20045;-59
2022/02/23 20:03:42;;;;;;;6.57;1.98;;;17.20;65.30;;;;;;10430550;28;20037;-58
2022/02/23 20:08:46;;;;;;;6.22;2.10;;;17.20;65.30;;;;;;10409869;28;20108;-58
2022/02/23 20:13:55;;;;;;;7.07;2.22;;;17.20;65.20;;;;;;10414321;28;20073;-60
2022/02/23 20:18:56;;;;;;;4.73;1.70;;;17.20;65.00;;;;;;10415735;28;20175;-59
2022/02/23 20:23:57;;;;;;;5.18;1.95;;;17.20;65.20;;;;;;10409791;28;20292;-58
2022/02/23 20:28:58;;;;;;;4.78;1.45;;;17.10;65.30;;;;;;10396774;28;20409;-58
2022/02/23 20:33:59;;;;;;;8.40;2.08;;;17.10;65.30;;;;;;10399357;28;20080;-59
2022/02/23 20:39:02;;;;;;;2.47;1.30;;;17.10;65.00;;;;;;10416538;28;20108;-58
2022/02/23 20:44:05;;;;;;;6.28;2.05;;;17.10;65.20;;;;;;10414436;28;20033;-59
2022/02/23 20:49:06;;;;;;;5.85;1.83;;;17.10;64.80;;;;;;10416295;28;20033;-59
2022/02/23 20:54:07;;;;;;;3.63;1.80;;;17.20;64.10;;;;;;10416468;28;20026;-60
2022/02/23 20:59:08;;;;;;;6.15;2.22;;;17.30;63.80;;;;;;10416870;28;20033;-59
2022/02/23 21:04:09;;;;;;;5.32;1.85;;;17.40;63.60;;;;;;10416763;28;20036;-59
2022/02/23 21:09:10;;;;;;;3.53;1.58;;;17.40;63.30;;;;;;10413472;28;20041;-59
2022/02/23 21:14:11;;;;;;;3.88;1.90;;;17.40;63.20;;;;;;10407146;28;20126;-59
2022/02/23 21:19:11;;;;;;;4.90;1.67;;;17.50;62.80;;;;;;10406542;28;20037;-59
2022/02/23 21:24:12;;;;;;;6.80;1.60;;;17.50;62.60;;;;;;10391518;28;20036;-59
2022/02/23 21:29:13;;;;;;;5.32;2.13;;;17.60;62.40;;;;;;10424167;28;20378;-59
2022/02/23 21:34:14;;;;;;;4.63;1.45;;;17.60;62.10;;;;;;10413452;28;20132;-59
2022/02/23 21:39:15;;;;;;;3.38;1.52;;;17.60;62.10;;;;;;10414865;28;20029;-59
2022/02/23 21:44:17;;;;;;;5.40;1.95;;;17.60;62.10;;;;;;10414303;28;20505;-59
2022/02/23 21:49:17;;;;;;;3.88;1.48;;;17.70;61.90;;;;;;10418767;28;20075;-59
2022/02/23 21:54:18;;;;;;;4.95;1.55;;;17.60;61.80;;;;;;10412948;28;20564;-60
2022/02/23 21:59:19;;;;;;;3.03;1.58;;;17.70;61.60;;;;;;10412554;28;20030;-59
2022/02/23 22:04:20;;;;;;;4.53;1.67;;;17.70;61.50;;;;;;10426433;28;20037;-58
2022/02/23 22:09:21;;;;;;;5.53;1.80;;;17.70;61.60;;;;;;10429381;28;20580;-59
2022/02/23 22:14:22;;;;;;;4.03;1.60;;;17.60;61.60;;;;;;10415753;28;20108;-59
2022/02/23 22:19:23;;;;;;;2.58;1.10;;;17.60;61.60;;;;;;10407988;28;20027;-59
2022/02/23 22:24:24;;;;;;;2.70;1.65;;;17.60;61.50;;;;;;10414187;28;20378;-59
2022/02/23 22:29:26;;;;;;;4.18;1.58;;;17.70;61.40;;;;;;10415527;28;20025;-58
2022/02/23 22:34:26;;;;;;;3.42;1.45;;;17.70;61.40;;;;;;10414904;28;20400;-58
2022/02/23 22:39:27;;;;;;;4.28;1.58;;;17.70;61.20;;;;;;10415188;28;20037;-59
2022/02/23 22:44:28;;;;;;;3.55;1.55;;;17.70;61.10;;;;;;10396891;28;20030;-58
2022/02/23 22:49:29;;;;;;;3.85;1.30;;;17.70;61.10;;;;;;10384293;28;20125;-59
2022/02/23 22:54:29;;;;;;;4.88;1.45;;;17.70;61.10;;;;;;10414489;28;20033;-59
2022/02/23 22:59:30;;;;;;;3.65;1.58;;;17.70;60.70;;;;;;10414051;28;20498;-59
2022/02/23 23:04:31;;;;;;;2.17;1.23;;;17.70;60.60;;;;;;10414043;28;20033;-60
2022/02/23 23:09:31;;;;;;;3.55;1.58;;;17.70;60.70;;;;;;10412780;28;20021;-59
2022/02/23 23:14:32;;;;;;;4.15;1.40;;;17.60;60.90;;;;;;10412230;28;20072;-59
2022/02/23 23:19:33;;;;;;;3.97;1.35;;;17.60;61.00;;;;;;10412716;28;20091;-59
2022/02/23 23:24:33;;;;;;;2.55;1.17;;;17.70;60.80;;;;;;10412099;28;20516;-59
2022/02/23 23:29:34;;;;;;;3.53;1.42;;;17.70;61.20;;;;;;10413526;28;20028;-59
2022/02/23 23:34:35;;;;;;;3.45;1.20;;;17.80;60.50;;;;;;10411679;28;20045;-60
2022/02/23 23:39:36;;;;;;;3.15;1.10;;;17.70;60.60;;;;;;10412023;28;20116;-58
2022/02/23 23:44:36;;;;;;;2.88;1.83;;;17.70;60.40;;;;;;10416634;28;20044;-59
2022/02/23 23:49:40;;;;;;;2.65;1.55;;;17.70;60.50;;;;;;10411793;28;20485;-58
2022/02/23 23:54:41;;;;;;;2.90;0.90;;;17.70;60.60;;;;;;10401568;28;20390;-60
2022/02/23 23:59:41;;;;;;;2.05;1.05;;;17.70;60.40;;;;;;10413019;28;20112;-59
